sensor_id;sensor_type;location;lat;lon;timestamp;pressure;altitude;pressure_sealevel;temperature;humidity
11329;BME280;5719;42.714;23.732;2023-02-27T00:01:08;93570.03;;;13.32;65.06
11329;BME280;5719;42.714;23.732;2023-02-27T00:03:35;93578.78;;;13.48;64.21
11329;BME280;5719;42.714;23.732;2023-02-27T00:06:03;93572.19;;;13.36;64.55
11329;BME280;5719;42.714;23.732;2023-02-27T00:08:30;93582.50;;;13.46;64.51
11329;BME280;5719;42.714;23.732;2023-02-27T00:10:58;93580.31;;;13.59;63.87
11329;BME280;5719;42.714;23.732;2023-02-27T00:13:25;93581.59;;;13.72;62.95
11329;BME280;5719;42.714;23.732;2023-02-27T00:15:52;93587.28;;;13.76;62.97
11329;BME280;5719;42.714;23.732;2023-02-27T00:18:20;93571.25;;;13.81;63.78
11329;BME280;5719;42.714;23.732;2023-02-27T00:20:47;93556.97;;;13.85;63.36
11329;BME280;5719;42.714;23.732;2023-02-27T00:23:14;93563.38;;;13.90;62.39
11329;BME280;5719;42.714;23.732;2023-02-27T00:25:41;93552.97;;;13.90;62.90
11329;BME280;5719;42.714;23.732;2023-02-27T00:28:09;93548.28;;;13.94;63.70
11329;BME280;5719;42.714;23.732;2023-02-27T00:30:36;93556.28;;;14.00;63.60
11329;BME280;5719;42.714;23.732;2023-02-27T00:33:03;93564.88;;;14.01;65.00
11329;BME280;5719;42.714;23.732;2023-02-27T00:35:30;93558.69;;;13.94;64.07
11329;BME280;5719;42.714;23.732;2023-02-27T00:37:57;93558.69;;;13.94;64.25
11329;BME280;5719;42.714;23.732;2023-02-27T00:40:24;93557.44;;;13.80;64.89
11329;BME280;5719;42.714;23.732;2023-02-27T00:42:51;93558.97;;;13.65;66.28
11329;BME280;5719;42.714;23.732;2023-02-27T00:45:19;93557.69;;;13.69;66.58
11329;BME280;5719;42.714;23.732;2023-02-27T00:47:46;93551.69;;;13.68;66.71
11329;BME280;5719;42.714;23.732;2023-02-27T00:50:13;93556.66;;;13.62;67.29
11329;BME280;5719;42.714;23.732;2023-02-27T00:52:40;93550.16;;;13.40;69.43
11329;BME280;5719;42.714;23.732;2023-02-27T00:55:08;93551.34;;;13.46;69.22
11329;BME280;5719;42.714;23.732;2023-02-27T00:57:35;93558.53;;;13.34;69.48
11329;BME280;5719;42.714;23.732;2023-02-27T01:00:03;93557.88;;;13.14;70.43
11329;BME280;5719;42.714;23.732;2023-02-27T01:02:32;93545.31;;;12.92;71.63
11329;BME280;5719;42.714;23.732;2023-02-27T01:04:59;93544.31;;;12.75;72.94
11329;BME280;5719;42.714;23.732;2023-02-27T01:07:26;93540.00;;;12.66;73.76
11329;BME280;5719;42.714;23.732;2023-02-27T01:09:53;93551.03;;;12.68;74.18
11329;BME280;5719;42.714;23.732;2023-02-27T01:12:20;93545.19;;;12.66;74.44
11329;BME280;5719;42.714;23.732;2023-02-27T01:14:47;93552.53;;;12.71;74.35
11329;BME280;5719;42.714;23.732;2023-02-27T01:17:14;93552.97;;;12.66;75.12
11329;BME280;5719;42.714;23.732;2023-02-27T01:19:42;93564.88;;;12.59;75.65
11329;BME280;5719;42.714;23.732;2023-02-27T01:22:09;93553.81;;;12.57;75.81
11329;BME280;5719;42.714;23.732;2023-02-27T01:24:36;93562.44;;;12.58;75.61
11329;BME280;5719;42.714;23.732;2023-02-27T01:27:03;93569.19;;;12.68;74.87
11329;BME280;5719;42.714;23.732;2023-02-27T01:29:29;93565.88;;;12.76;73.91
11329;BME280;5719;42.714;23.732;2023-02-27T01:31:56;93563.16;;;12.77;74.58
11329;BME280;5719;42.714;23.732;2023-02-27T01:34:23;93580.78;;;12.74;74.31
11329;BME280;5719;42.714;23.732;2023-02-27T01:36:51;93581.41;;;12.86;73.65
11329;BME280;5719;42.714;23.732;2023-02-27T01:39:19;93591.47;;;12.89;73.49
11329;BME280;5719;42.714;23.732;2023-02-27T01:41:46;93587.91;;;12.90;73.11
11329;BME280;5719;42.714;23.732;2023-02-27T01:44:14;93575.63;;;12.64;74.35
11329;BME280;5719;42.714;23.732;2023-02-27T01:46:41;93573.63;;;12.58;75.54
11329;BME280;5719;42.714;23.732;2023-02-27T01:49:11;93567.56;;;12.40;77.45
11329;BME280;5719;42.714;23.732;2023-02-27T01:51:42;93582.28;;;12.40;77.03
11329;BME280;5719;42.714;23.732;2023-02-27T01:54:14;93581.94;;;12.25;77.89
11329;BME280;5719;42.714;23.732;2023-02-27T01:56:42;93591.59;;;12.33;77.79
11329;BME280;5719;42.714;23.732;2023-02-27T01:59:09;93595.84;;;12.34;77.82
11329;BME280;5719;42.714;23.732;2023-02-27T02:01:37;93583.28;;;12.29;78.04
11329;BME280;5719;42.714;23.732;2023-02-27T02:04:09;93592.81;;;12.38;78.51
11329;BME280;5719;42.714;23.732;2023-02-27T02:06:40;93604.97;;;12.38;78.15
11329;BME280;5719;42.714;23.732;2023-02-27T02:09:11;93603.97;;;12.48;77.46
11329;BME280;5719;42.714;23.732;2023-02-27T02:11:40;93613.03;;;12.62;76.36
11329;BME280;5719;42.714;23.732;2023-02-27T02:14:07;93611.94;;;12.64;76.92
11329;BME280;5719;42.714;23.732;2023-02-27T02:17:04;93605.13;;;12.63;76.33
11329;BME280;5719;42.714;23.732;2023-02-27T02:19:53;93609.97;;;12.49;77.21
11329;BME280;5719;42.714;23.732;2023-02-27T02:22:55;93617.88;;;12.47;76.52
11329;BME280;5719;42.714;23.732;2023-02-27T02:25:53;93623.47;;;12.52;77.05
11329;BME280;5719;42.714;23.732;2023-02-27T02:37:40;93632.22;;;12.78;77.59
11329;BME280;5719;42.714;23.732;2023-02-27T02:40:19;93614.78;;;12.71;81.10
11329;BME280;5719;42.714;23.732;2023-02-27T02:42:54;93629.00;;;12.57;82.47
11329;BME280;5719;42.714;23.732;2023-02-27T02:45:26;93631.53;;;12.49;83.53
11329;BME280;5719;42.714;23.732;2023-02-27T02:48:03;93644.13;;;12.25;86.54
11329;BME280;5719;42.714;23.732;2023-02-27T02:50:39;93725.53;;;11.55;93.42
11329;BME280;5719;42.714;23.732;2023-02-27T02:53:12;93797.31;;;11.04;95.05
11329;BME280;5719;42.714;23.732;2023-02-27T02:55:45;93843.25;;;9.63;100.00
11329;BME280;5719;42.714;23.732;2023-02-27T02:58:19;93858.88;;;8.84;100.00
11329;BME280;5719;42.714;23.732;2023-02-27T03:00:52;93885.47;;;8.84;100.00
11329;BME280;5719;42.714;23.732;2023-02-27T03:03:24;93894.56;;;8.66;100.00
11329;BME280;5719;42.714;23.732;2023-02-27T03:05:55;93905.31;;;8.60;100.00
11329;BME280;5719;42.714;23.732;2023-02-27T03:08:26;93924.50;;;8.56;100.00
11329;BME280;5719;42.714;23.732;2023-02-27T03:10:57;93929.41;;;8.48;100.00
11329;BME280;5719;42.714;23.732;2023-02-27T03:13:30;93918.41;;;8.57;100.00
11329;BME280;5719;42.714;23.732;2023-02-27T03:16:03;93932.94;;;8.58;100.00
11329;BME280;5719;42.714;23.732;2023-02-27T03:18:35;93942.25;;;8.72;100.00
11329;BME280;5719;42.714;23.732;2023-02-27T03:21:08;93942.66;;;9.01;100.00
11329;BME280;5719;42.714;23.732;2023-02-27T03:23:38;93947.28;;;9.19;100.00
11329;BME280;5719;42.714;23.732;2023-02-27T03:26:09;93941.31;;;9.30;100.00
11329;BME280;5719;42.714;23.732;2023-02-27T03:28:41;93942.84;;;9.55;100.00
11329;BME280;5719;42.714;23.732;2023-02-27T03:31:19;93930.75;;;9.89;100.00
11329;BME280;5719;42.714;23.732;2023-02-27T03:33:50;93925.22;;;10.15;100.00
11329;BME280;5719;42.714;23.732;2023-02-27T03:36:25;93932.63;;;10.09;100.00
11329;BME280;5719;42.714;23.732;2023-02-27T03:39:01;93932.16;;;9.81;100.00
11329;BME280;5719;42.714;23.732;2023-02-27T03:41:34;93915.28;;;9.66;100.00
11329;BME280;5719;42.714;23.732;2023-02-27T03:44:07;93891.22;;;9.77;100.00
11329;BME280;5719;42.714;23.732;2023-02-27T03:46:36;93906.13;;;9.73;100.00
11329;BME280;5719;42.714;23.732;2023-02-27T03:49:04;93915.88;;;9.59;100.00
11329;BME280;5719;42.714;23.732;2023-02-27T03:51:32;93949.41;;;9.59;100.00
11329;BME280;5719;42.714;23.732;2023-02-27T03:54:02;93961.03;;;9.75;100.00
11329;BME280;5719;42.714;23.732;2023-02-27T03:56:37;93974.53;;;10.01;100.00
11329;BME280;5719;42.714;23.732;2023-02-27T03:59:06;93984.72;;;10.14;100.00
11329;BME280;5719;42.714;23.732;2023-02-27T04:01:33;93984.28;;;10.20;100.00
11329;BME280;5719;42.714;23.732;2023-02-27T04:04:05;93983.19;;;10.11;100.00
11329;BME280;5719;42.714;23.732;2023-02-27T04:06:35;93960.78;;;10.12;100.00
11329;BME280;5719;42.714;23.732;2023-02-27T04:09:24;93983.41;;;10.42;100.00
11329;BME280;5719;42.714;23.732;2023-02-27T04:12:05;93979.97;;;10.52;100.00
11329;BME280;5719;42.714;23.732;2023-02-27T04:14:49;93981.38;;;10.56;100.00
11329;BME280;5719;42.714;23.732;2023-02-27T04:17:22;93985.22;;;10.62;100.00
11329;BME280;5719;42.714;23.732;2023-02-27T04:22:57;93995.56;;;10.62;100.00
11329;BME280;5719;42.714;23.732;2023-02-27T04:25:38;93981.38;;;10.56;100.00
11329;BME280;5719;42.714;23.732;2023-02-27T04:28:14;93968.25;;;10.48;100.00
11329;BME280;5719;42.714;23.732;2023-02-27T04:30:48;93963.31;;;10.45;100.00
11329;BME280;5719;42.714;23.732;2023-02-27T04:33:25;93984.13;;;10.32;100.00
11329;BME280;5719;42.714;23.732;2023-02-27T04:35:58;93977.91;;;10.24;100.00
11329;BME280;5719;42.714;23.732;2023-02-27T04:38:31;93983.78;;;10.26;100.00
11329;BME280;5719;42.714;23.732;2023-02-27T04:41:04;93989.31;;;9.99;100.00
11329;BME280;5719;42.714;23.732;2023-02-27T04:43:35;93984.97;;;9.77;100.00
11329;BME280;5719;42.714;23.732;2023-02-27T04:46:05;93993.88;;;9.51;100.00
11329;BME280;5719;42.714;23.732;2023-02-27T04:48:37;94010.75;;;9.44;100.00
11329;BME280;5719;42.714;23.732;2023-02-27T04:51:09;94016.00;;;9.31;100.00
11329;BME280;5719;42.714;23.732;2023-02-27T04:53:45;94029.97;;;9.40;100.00
11329;BME280;5719;42.714;23.732;2023-02-27T04:56:15;94035.13;;;9.40;100.00
11329;BME280;5719;42.714;23.732;2023-02-27T04:58:47;94043.47;;;9.32;100.00
11329;BME280;5719;42.714;23.732;2023-02-27T05:01:21;94048.25;;;9.37;100.00
11329;BME280;5719;42.714;23.732;2023-02-27T05:03:51;94060.03;;;9.52;100.00
11329;BME280;5719;42.714;23.732;2023-02-27T05:06:23;94070.47;;;9.62;100.00
11329;BME280;5719;42.714;23.732;2023-02-27T05:08:58;94080.59;;;9.65;100.00
11329;BME280;5719;42.714;23.732;2023-02-27T05:11:30;94085.66;;;9.08;100.00
11329;BME280;5719;42.714;23.732;2023-02-27T05:14:04;94100.56;;;9.39;100.00
11329;BME280;5719;42.714;23.732;2023-02-27T05:16:37;94087.25;;;9.56;100.00
11329;BME280;5719;42.714;23.732;2023-02-27T05:19:05;94097.03;;;9.75;100.00
11329;BME280;5719;42.714;23.732;2023-02-27T05:21:36;94098.81;;;9.85;100.00
11329;BME280;5719;42.714;23.732;2023-02-27T05:24:13;94098.34;;;9.92;100.00
11329;BME280;5719;42.714;23.732;2023-02-27T05:27:05;94094.81;;;9.93;100.00
11329;BME280;5719;42.714;23.732;2023-02-27T05:29:42;94101.41;;;9.97;100.00
11329;BME280;5719;42.714;23.732;2023-02-27T05:32:23;94114.41;;;9.95;100.00
11329;BME280;5719;42.714;23.732;2023-02-27T05:34:57;94133.66;;;9.91;100.00
11329;BME280;5719;42.714;23.732;2023-02-27T05:37:30;94157.72;;;9.92;100.00
11329;BME280;5719;42.714;23.732;2023-02-27T05:39:59;94159.31;;;9.70;100.00
11329;BME280;5719;42.714;23.732;2023-02-27T05:42:34;94152.41;;;9.82;100.00
11329;BME280;5719;42.714;23.732;2023-02-27T05:45:07;94147.81;;;9.74;100.00
11329;BME280;5719;42.714;23.732;2023-02-27T05:47:37;94145.22;;;9.28;100.00
11329;BME280;5719;42.714;23.732;2023-02-27T05:50:07;94146.44;;;8.75;100.00
11329;BME280;5719;42.714;23.732;2023-02-27T05:52:36;94155.94;;;8.99;100.00
11329;BME280;5719;42.714;23.732;2023-02-27T05:55:09;94156.94;;;9.09;100.00
11329;BME280;5719;42.714;23.732;2023-02-27T05:57:41;94155.84;;;9.24;100.00
11329;BME280;5719;42.714;23.732;2023-02-27T06:02:42;94165.25;;;9.60;100.00
11329;BME280;5719;42.714;23.732;2023-02-27T06:05:12;94174.28;;;9.65;100.00
11329;BME280;5719;42.714;23.732;2023-02-27T06:07:39;94180.47;;;9.75;100.00
11329;BME280;5719;42.714;23.732;2023-02-27T06:10:09;94170.25;;;9.85;100.00
11329;BME280;5719;42.714;23.732;2023-02-27T06:12:37;94172.16;;;9.83;100.00
11329;BME280;5719;42.714;23.732;2023-02-27T06:15:04;94172.25;;;9.81;100.00
11329;BME280;5719;42.714;23.732;2023-02-27T06:17:32;94174.38;;;9.88;100.00
11329;BME280;5719;42.714;23.732;2023-02-27T06:19:59;94186.84;;;9.94;100.00
11329;BME280;5719;42.714;23.732;2023-02-27T06:22:27;94188.47;;;9.83;100.00
11329;BME280;5719;42.714;23.732;2023-02-27T06:24:54;94182.09;;;9.76;100.00
11329;BME280;5719;42.714;23.732;2023-02-27T06:27:21;94177.25;;;9.61;100.00
11329;BME280;5719;42.714;23.732;2023-02-27T06:29:48;94193.50;;;9.50;100.00
11329;BME280;5719;42.714;23.732;2023-02-27T06:32:15;94202.28;;;8.88;100.00
11329;BME280;5719;42.714;23.732;2023-02-27T06:34:43;94204.50;;;8.18;100.00
11329;BME280;5719;42.714;23.732;2023-02-27T06:37:10;94199.88;;;8.23;100.00
11329;BME280;5719;42.714;23.732;2023-02-27T06:39:37;94206.41;;;8.02;100.00
11329;BME280;5719;42.714;23.732;2023-02-27T06:42:04;94173.31;;;7.58;100.00
11329;BME280;5719;42.714;23.732;2023-02-27T06:44:31;94200.59;;;7.21;100.00
11329;BME280;5719;42.714;23.732;2023-02-27T06:46:58;94199.78;;;7.60;100.00
11329;BME280;5719;42.714;23.732;2023-02-27T06:49:24;94204.94;;;7.72;100.00
11329;BME280;5719;42.714;23.732;2023-02-27T06:51:53;94209.69;;;7.78;100.00
11329;BME280;5719;42.714;23.732;2023-02-27T06:54:20;94216.88;;;7.73;100.00
11329;BME280;5719;42.714;23.732;2023-02-27T06:56:47;94217.91;;;7.71;100.00
11329;BME280;5719;42.714;23.732;2023-02-27T06:59:16;94216.81;;;7.48;100.00
11329;BME280;5719;42.714;23.732;2023-02-27T07:01:43;94215.16;;;7.47;100.00
11329;BME280;5719;42.714;23.732;2023-02-27T07:04:12;94212.91;;;7.43;100.00
11329;BME280;5719;42.714;23.732;2023-02-27T07:06:38;94215.56;;;7.80;100.00
11329;BME280;5719;42.714;23.732;2023-02-27T07:09:07;94225.06;;;7.53;100.00
11329;BME280;5719;42.714;23.732;2023-02-27T07:11:34;94224.31;;;7.90;100.00
11329;BME280;5719;42.714;23.732;2023-02-27T07:14:01;94230.53;;;8.13;100.00
11329;BME280;5719;42.714;23.732;2023-02-27T07:16:27;94238.16;;;8.15;100.00
11329;BME280;5719;42.714;23.732;2023-02-27T07:18:54;94236.34;;;7.65;100.00
11329;BME280;5719;42.714;23.732;2023-02-27T07:21:21;94230.03;;;7.56;100.00
11329;BME280;5719;42.714;23.732;2023-02-27T07:23:48;94233.50;;;7.55;100.00
11329;BME280;5719;42.714;23.732;2023-02-27T07:26:16;94233.16;;;7.74;100.00
11329;BME280;5719;42.714;23.732;2023-02-27T07:28:44;94231.34;;;8.14;100.00
11329;BME280;5719;42.714;23.732;2023-02-27T07:31:11;94244.78;;;8.57;100.00
11329;BME280;5719;42.714;23.732;2023-02-27T07:33:38;94243.00;;;8.95;100.00
11329;BME280;5719;42.714;23.732;2023-02-27T07:36:06;94250.44;;;9.00;100.00
11329;BME280;5719;42.714;23.732;2023-02-27T07:38:33;94251.78;;;8.80;100.00
11329;BME280;5719;42.714;23.732;2023-02-27T07:41:00;94251.53;;;9.08;100.00
11329;BME280;5719;42.714;23.732;2023-02-27T07:43:29;94257.00;;;9.40;100.00
11329;BME280;5719;42.714;23.732;2023-02-27T07:45:56;94279.03;;;9.57;100.00
11329;BME280;5719;42.714;23.732;2023-02-27T07:48:23;94290.22;;;9.45;100.00
11329;BME280;5719;42.714;23.732;2023-02-27T07:50:50;94281.44;;;9.95;100.00
11329;BME280;5719;42.714;23.732;2023-02-27T07:53:17;94263.09;;;10.67;100.00
11329;BME280;5719;42.714;23.732;2023-02-27T07:55:44;94265.56;;;11.36;95.53
11329;BME280;5719;42.714;23.732;2023-02-27T07:58:11;94265.09;;;11.85;88.24
11329;BME280;5719;42.714;23.732;2023-02-27T08:00:40;94262.91;;;12.12;85.57
11329;BME280;5719;42.714;23.732;2023-02-27T08:03:07;94266.13;;;12.25;84.84
11329;BME280;5719;42.714;23.732;2023-02-27T08:05:34;94269.53;;;12.46;84.53
11329;BME280;5719;42.714;23.732;2023-02-27T08:08:02;94272.63;;;12.61;82.11
11329;BME280;5719;42.714;23.732;2023-02-27T08:10:29;94274.66;;;12.78;81.92
11329;BME280;5719;42.714;23.732;2023-02-27T08:12:56;94277.94;;;12.80;80.60
11329;BME280;5719;42.714;23.732;2023-02-27T08:15:23;94272.22;;;12.86;79.97
11329;BME280;5719;42.714;23.732;2023-02-27T08:17:51;94258.09;;;12.69;82.59
11329;BME280;5719;42.714;23.732;2023-02-27T08:20:18;94274.19;;;12.94;83.07
11329;BME280;5719;42.714;23.732;2023-02-27T08:22:47;94274.03;;;13.16;79.23
11329;BME280;5719;42.714;23.732;2023-02-27T08:25:14;94267.22;;;13.15;79.45
11329;BME280;5719;42.714;23.732;2023-02-27T08:27:41;94267.91;;;13.17;79.04
11329;BME280;5719;42.714;23.732;2023-02-27T08:30:09;94259.31;;;13.26;80.08
11329;BME280;5719;42.714;23.732;2023-02-27T08:32:37;94262.25;;;13.33;79.58
11329;BME280;5719;42.714;23.732;2023-02-27T08:35:06;94266.06;;;13.38;77.44
11329;BME280;5719;42.714;23.732;2023-02-27T08:37:33;94254.72;;;13.30;76.51
11329;BME280;5719;42.714;23.732;2023-02-27T08:40:00;94252.06;;;13.20;78.31
11329;BME280;5719;42.714;23.732;2023-02-27T08:42:28;94264.19;;;13.40;77.73
11329;BME280;5719;42.714;23.732;2023-02-27T08:44:55;94257.34;;;13.39;76.51
11329;BME280;5719;42.714;23.732;2023-02-27T08:47:22;94286.53;;;13.62;76.09
11329;BME280;5719;42.714;23.732;2023-02-27T08:49:49;94286.63;;;13.51;76.64
11329;BME280;5719;42.714;23.732;2023-02-27T08:52:17;94297.88;;;13.31;77.40
11329;BME280;5719;42.714;23.732;2023-02-27T08:54:44;94297.72;;;12.19;81.51
11329;BME280;5719;42.714;23.732;2023-02-27T08:57:11;94302.13;;;12.60;82.65
11329;BME280;5719;42.714;23.732;2023-02-27T08:59:38;94307.53;;;13.19;79.10
11329;BME280;5719;42.714;23.732;2023-02-27T09:02:05;94322.63;;;13.65;76.25
11329;BME280;5719;42.714;23.732;2023-02-27T09:04:32;94313.06;;;13.85;72.66
11329;BME280;5719;42.714;23.732;2023-02-27T09:06:59;94312.56;;;14.10;73.75
11329;BME280;5719;42.714;23.732;2023-02-27T09:09:27;94325.66;;;13.80;72.27
11329;BME280;5719;42.714;23.732;2023-02-27T09:11:54;94326.78;;;13.87;73.38
11329;BME280;5719;42.714;23.732;2023-02-27T09:14:21;94321.09;;;14.31;72.07
11329;BME280;5719;42.714;23.732;2023-02-27T09:16:48;94311.50;;;14.89;70.17
11329;BME280;5719;42.714;23.732;2023-02-27T09:19:15;94314.19;;;15.53;67.47
11329;BME280;5719;42.714;23.732;2023-02-27T09:21:42;94320.50;;;15.51;63.43
11329;BME280;5719;42.714;23.732;2023-02-27T09:24:09;94321.66;;;14.54;67.65
11329;BME280;5719;42.714;23.732;2023-02-27T09:26:37;94309.00;;;14.88;67.64
11329;BME280;5719;42.714;23.732;2023-02-27T09:29:04;94319.84;;;15.39;65.75
11329;BME280;5719;42.714;23.732;2023-02-27T09:31:31;94312.78;;;16.13;62.92
11329;BME280;5719;42.714;23.732;2023-02-27T09:33:58;94318.00;;;16.66;60.56
11329;BME280;5719;42.714;23.732;2023-02-27T09:36:26;94326.44;;;16.78;59.68
11329;BME280;5719;42.714;23.732;2023-02-27T09:38:53;94320.16;;;17.14;59.18
11329;BME280;5719;42.714;23.732;2023-02-27T09:41:31;94331.38;;;17.33;57.59
11329;BME280;5719;42.714;23.732;2023-02-27T09:44:02;94329.34;;;17.19;57.17
11329;BME280;5719;42.714;23.732;2023-02-27T09:46:29;94331.78;;;17.20;58.04
11329;BME280;5719;42.714;23.732;2023-02-27T09:48:58;94338.66;;;17.47;57.25
11329;BME280;5719;42.714;23.732;2023-02-27T09:51:26;94336.50;;;17.42;55.86
11329;BME280;5719;42.714;23.732;2023-02-27T09:53:56;94341.59;;;17.70;55.77
11329;BME280;5719;42.714;23.732;2023-02-27T09:56:27;94341.22;;;17.64;55.53
11329;BME280;5719;42.714;23.732;2023-02-27T09:58:59;94343.25;;;17.79;55.87
11329;BME280;5719;42.714;23.732;2023-02-27T10:01:33;94348.59;;;18.11;53.93
11329;BME280;5719;42.714;23.732;2023-02-27T10:04:30;94344.34;;;18.60;52.76
11329;BME280;5719;42.714;23.732;2023-02-27T10:07:08;94349.94;;;18.89;51.37
11329;BME280;5719;42.714;23.732;2023-02-27T10:09:46;94348.13;;;18.82;51.59
11329;BME280;5719;42.714;23.732;2023-02-27T10:12:23;94341.03;;;18.58;51.48
11329;BME280;5719;42.714;23.732;2023-02-27T10:14:56;94340.56;;;18.54;51.95
11329;BME280;5719;42.714;23.732;2023-02-27T10:17:28;94340.19;;;18.41;51.22
11329;BME280;5719;42.714;23.732;2023-02-27T10:19:57;94326.84;;;18.85;52.61
11329;BME280;5719;42.714;23.732;2023-02-27T10:22:28;94334.34;;;19.28;50.78
11329;BME280;5719;42.714;23.732;2023-02-27T10:24:59;94344.25;;;19.81;49.80
11329;BME280;5719;42.714;23.732;2023-02-27T10:27:29;94343.28;;;18.37;51.58
11329;BME280;5719;42.714;23.732;2023-02-27T10:30:15;94345.16;;;19.25;51.04
11329;BME280;5719;42.714;23.732;2023-02-27T10:32:47;94339.16;;;20.58;48.12
11329;BME280;5719;42.714;23.732;2023-02-27T10:35:23;94333.25;;;21.01;45.20
11329;BME280;5719;42.714;23.732;2023-02-27T10:37:54;94340.56;;;21.14;45.65
11329;BME280;5719;42.714;23.732;2023-02-27T10:40:24;94329.50;;;21.56;44.41
11329;BME280;5719;42.714;23.732;2023-02-27T10:42:52;94346.69;;;21.95;43.47
11329;BME280;5719;42.714;23.732;2023-02-27T10:45:20;94333.28;;;21.82;43.93
11329;BME280;5719;42.714;23.732;2023-02-27T10:47:48;94325.00;;;22.44;43.33
11329;BME280;5719;42.714;23.732;2023-02-27T10:50:24;94310.53;;;23.18;43.40
11329;BME280;5719;42.714;23.732;2023-02-27T10:52:53;94302.38;;;24.03;40.42
11329;BME280;5719;42.714;23.732;2023-02-27T10:55:24;94313.00;;;24.64;38.38
11329;BME280;5719;42.714;23.732;2023-02-27T10:57:52;94293.97;;;25.14;37.79
11329;BME280;5719;42.714;23.732;2023-02-27T11:00:25;94290.50;;;24.87;38.05
11329;BME280;5719;42.714;23.732;2023-02-27T11:02:54;94297.81;;;24.85;37.39
11329;BME280;5719;42.714;23.732;2023-02-27T11:05:25;94293.78;;;25.42;36.25
11329;BME280;5719;42.714;23.732;2023-02-27T11:07:53;94290.50;;;25.66;35.71
11329;BME280;5719;42.714;23.732;2023-02-27T11:10:24;94295.63;;;25.68;35.88
11329;BME280;5719;42.714;23.732;2023-02-27T11:13:00;94295.38;;;25.10;35.76
11329;BME280;5719;42.714;23.732;2023-02-27T11:15:28;94291.75;;;25.24;35.41
11329;BME280;5719;42.714;23.732;2023-02-27T11:18:23;94290.91;;;25.44;35.11
11329;BME280;5719;42.714;23.732;2023-02-27T11:20:51;94284.63;;;24.18;35.41
11329;BME280;5719;42.714;23.732;2023-02-27T11:23:20;94273.84;;;24.26;37.14
11329;BME280;5719;42.714;23.732;2023-02-27T11:25:48;94275.19;;;24.09;36.69
11329;BME280;5719;42.714;23.732;2023-02-27T11:28:23;94264.78;;;23.05;37.43
11329;BME280;5719;42.714;23.732;2023-02-27T11:30:58;94259.94;;;23.64;36.37
11329;BME280;5719;42.714;23.732;2023-02-27T11:33:32;94263.44;;;22.52;37.90
11329;BME280;5719;42.714;23.732;2023-02-27T11:38:28;94258.63;;;24.35;34.99
11329;BME280;5719;42.714;23.732;2023-02-27T11:40:58;94251.63;;;25.14;33.23
11329;BME280;5719;42.714;23.732;2023-02-27T11:43:27;94262.00;;;25.62;32.07
11329;BME280;5719;42.714;23.732;2023-02-27T11:45:57;94260.94;;;25.82;31.12
11329;BME280;5719;42.714;23.732;2023-02-27T11:48:30;94258.94;;;25.71;31.21
11329;BME280;5719;42.714;23.732;2023-02-27T11:51:22;94256.28;;;25.71;30.68
11329;BME280;5719;42.714;23.732;2023-02-27T11:54:07;94263.44;;;25.51;32.49
11329;BME280;5719;42.714;23.732;2023-02-27T11:56:38;94264.44;;;25.63;33.37
11329;BME280;5719;42.714;23.732;2023-02-27T11:59:16;94264.66;;;25.49;32.19
11329;BME280;5719;42.714;23.732;2023-02-27T12:01:51;94263.47;;;23.43;34.97
11329;BME280;5719;42.714;23.732;2023-02-27T12:04:23;94262.78;;;24.10;33.40
11329;BME280;5719;42.714;23.732;2023-02-27T12:06:56;94268.38;;;24.34;32.60
11329;BME280;5719;42.714;23.732;2023-02-27T12:09:35;94270.72;;;24.10;33.21
11329;BME280;5719;42.714;23.732;2023-02-27T12:12:07;94269.00;;;22.78;35.48
11329;BME280;5719;42.714;23.732;2023-02-27T12:14:42;94277.34;;;21.59;40.95
11329;BME280;5719;42.714;23.732;2023-02-27T12:17:18;94272.94;;;20.85;43.42
11329;BME280;5719;42.714;23.732;2023-02-27T12:19:59;94277.31;;;21.30;43.17
11329;BME280;5719;42.714;23.732;2023-02-27T12:22:35;94282.13;;;21.85;41.01
11329;BME280;5719;42.714;23.732;2023-02-27T12:25:06;94277.25;;;21.96;39.81
11329;BME280;5719;42.714;23.732;2023-02-27T12:27:42;94285.00;;;21.90;40.06
11329;BME280;5719;42.714;23.732;2023-02-27T12:30:15;94277.34;;;21.44;39.97
11329;BME280;5719;42.714;23.732;2023-02-27T12:32:47;94282.06;;;21.49;40.11
11329;BME280;5719;42.714;23.732;2023-02-27T12:35:21;94270.97;;;20.87;40.77
11329;BME280;5719;42.714;23.732;2023-02-27T12:37:50;94279.78;;;20.18;42.11
11329;BME280;5719;42.714;23.732;2023-02-27T12:40:18;94275.28;;;20.34;42.88
11329;BME280;5719;42.714;23.732;2023-02-27T12:43:12;94277.63;;;20.75;42.68
11329;BME280;5719;42.714;23.732;2023-02-27T12:48:45;94264.81;;;20.94;42.14
11329;BME280;5719;42.714;23.732;2023-02-27T12:51:28;94266.84;;;20.47;43.12
11329;BME280;5719;42.714;23.732;2023-02-27T12:54:05;94276.06;;;19.10;46.95
11329;BME280;5719;42.714;23.732;2023-02-27T12:56:46;94275.22;;;17.71;51.20
11329;BME280;5719;42.714;23.732;2023-02-27T13:31:43;94298.56;;;16.87;51.75
11329;BME280;5719;42.714;23.732;2023-02-27T13:34:19;94284.50;;;16.44;52.80
11329;BME280;5719;42.714;23.732;2023-02-27T13:36:50;94287.97;;;15.82;54.84
11329;BME280;5719;42.714;23.732;2023-02-27T13:39:49;94277.69;;;15.26;56.40
11329;BME280;5719;42.714;23.732;2023-02-27T13:42:52;94281.38;;;14.77;58.61
11329;BME280;5719;42.714;23.732;2023-02-27T13:45:52;94292.22;;;15.19;58.61
11329;BME280;5719;42.714;23.732;2023-02-27T13:48:51;94279.63;;;14.68;60.21
11329;BME280;5719;42.714;23.732;2023-02-27T13:51:45;94276.81;;;13.73;65.52
11329;BME280;5719;42.714;23.732;2023-02-27T13:54:24;94287.34;;;13.62;67.81
11329;BME280;5719;42.714;23.732;2023-02-27T13:57:06;94284.47;;;13.65;68.02
11329;BME280;5719;42.714;23.732;2023-02-27T13:59:35;94282.22;;;14.20;63.46
11329;BME280;5719;42.714;23.732;2023-02-27T14:02:15;94281.97;;;14.42;63.48
11329;BME280;5719;42.714;23.732;2023-02-27T14:04:54;94283.97;;;14.77;61.26
11329;BME280;5719;42.714;23.732;2023-02-27T14:07:24;94283.69;;;14.80;59.86
11329;BME280;5719;42.714;23.732;2023-02-27T14:10:00;94290.69;;;14.70;59.17
11329;BME280;5719;42.714;23.732;2023-02-27T14:12:29;94277.56;;;14.71;60.41
11329;BME280;5719;42.714;23.732;2023-02-27T14:14:58;94277.28;;;14.55;61.03